Karinya Fr699 — MAUA8 — position and weather

sailwx.info

Track history (hours):
 
Tides and Currents Weather Stations Pressure Air Temp Water Temp Dewpoint Dewpoint Depression Visibility Wind Speed Wind Dir Waves Ship Positions

Karinya Fr699

Last reported at 2014-Aug-29 23:14 UTC. Time now 2014-Sep-01 21:19 UTC.
Position N 57°44' W 001°32'.

Length 16 m.

MMSI: 235018981.

Date/timePositionNaut miles runAvg speedWind from/ knotsBaromVisibWave heightAir tempDewpointWater temp
2014-Aug-29 23:14N 57°44' W 001°32'5 7.8
2014-Aug-29 22:33N 57°43' W 001°42'8 8.0
2014-Aug-29 21:33N 57°42' W 001°57'2 0.1
2014-Aug-28 19:30N 57°42' W 002°00'0 0.5
2014-Aug-28 18:34N 57°42' W 001°59'  
2014-Aug-25 12:21N 57°45' W 001°55'5 5.7
2014-Aug-25 11:33N 57°41' W 001°60'0 0.1
2014-Aug-25 10:33N 57°42' W 001°60'0 0.1
2014-Aug-25 09:33N 57°42' W 002°00'  
Track history (hours):
 
Tides and Currents Weather Stations Pressure Air Temp Water Temp Dewpoint Dewpoint Depression Visibility Wind Speed Wind Dir Waves Ship Positions

Karinya Fr699

Last reported at 2014-Aug-29 23:14 UTC. Time now 2014-Sep-01 21:19 UTC.
Position N 57°44' W 001°32'.

Length 16 m.

MMSI: 235018981.

Date/timePositionNaut miles runAvg speedWind from/ knotsBaromVisibWave heightAir tempDewpointWater temp
2014-Aug-29 23:14N 57°44' W 001°32'5 7.8
2014-Aug-29 22:33N 57°43' W 001°42'8 8.0
2014-Aug-29 21:33N 57°42' W 001°57'2 0.1
2014-Aug-28 19:30N 57°42' W 002°00'0 0.5
2014-Aug-28 18:34N 57°42' W 001°59'  
2014-Aug-25 12:21N 57°45' W 001°55'5 5.7
2014-Aug-25 11:33N 57°41' W 001°60'0 0.1
2014-Aug-25 10:33N 57°42' W 001°60'0 0.1
2014-Aug-25 09:33N 57°42' W 002°00'  

Dump ship's entire track history